Time;durP1;ratioP1;P1;durP2;ratioP2;P2;SDS_P1;SDS_P2;PMS_P1;PMS_P2;Temp;Humidity;BMP_temperature;BMP_pressure;BME280_temperature;BME280_humidity;BME280_pressure;Samples;Min_cycle;Max_cycle;Signal;HPM_P1;HPM_P2
2022/09/16 00:00:56;;;;;;;9.57;8.77;;;14.80;99.90;;;;;;4890316;28;20470;-85
2022/09/16 00:03:50;;;;;;;7.90;7.30;;;14.80;99.90;;;;;;4965791;29;20528;-86
2022/09/16 00:06:31;;;;;;;7.60;6.90;;;14.80;99.90;;;;;;4963769;29;20537;-86
2022/09/16 00:12:03;;;;;;;7.43;5.60;;;14.70;99.90;;;;;;4965345;28;20528;-86
2022/09/16 00:14:46;;;;;;;7.70;5.97;;;14.70;99.90;;;;;;4965492;29;20823;-86
2022/09/16 00:17:25;;;;;;;9.57;5.70;;;14.80;99.90;;;;;;4964931;29;20480;-86
2022/09/16 00:22:51;;;;;;;5.90;5.40;;;14.90;99.90;;;;;;4941647;29;20459;-85
2022/09/16 00:25:29;;;;;;;6.33;5.90;;;14.90;99.90;;;;;;4963180;28;20476;-84
2022/09/16 00:28:05;;;;;;;7.00;6.37;;;14.80;99.90;;;;;;4969810;29;20460;-86
2022/09/16 00:30:40;;;;;;;7.50;6.23;;;14.80;99.90;;;;;;4968390;29;20484;-85
2022/09/16 00:33:08;;;;;;;6.30;5.77;;;14.70;99.90;;;;;;4969079;29;20449;-85
2022/09/16 00:35:55;;;;;;;5.33;4.93;;;14.70;99.90;;;;;;4969374;28;20460;-86
2022/09/16 00:38:33;;;;;;;6.90;5.73;;;14.70;99.90;;;;;;4969104;29;20458;-86
2022/09/16 00:41:01;;;;;;;7.10;5.50;;;14.70;99.90;;;;;;4969146;29;20547;-85
2022/09/16 00:43:46;;;;;;;6.23;5.73;;;14.70;99.90;;;;;;4970431;28;20466;-85
2022/09/16 00:49:32;;;;;;;5.53;5.10;;;14.70;99.90;;;;;;4965068;28;20616;-85
2022/09/16 00:55:09;;;;;;;6.33;5.30;;;14.60;99.90;;;;;;4968444;29;20495;-86
2022/09/16 00:57:53;;;;;;;9.73;6.00;;;14.70;99.90;;;;;;4969357;29;20452;-86
2022/09/16 01:00:29;;;;;;;5.67;5.27;;;14.60;99.90;;;;;;4969118;29;20465;-85
2022/09/16 01:03:16;;;;;;;5.97;5.57;;;14.60;99.90;;;;;;4969578;29;20440;-86
2022/09/16 01:09:05;;;;;;;7.33;6.73;;;14.50;99.90;;;;;;4967415;28;20479;-86
2022/09/16 01:11:35;;;;;;;7.20;6.60;;;14.40;99.90;;;;;;4967333;28;20497;-85
2022/09/16 01:16:50;;;;;;;6.27;5.00;;;14.40;99.90;;;;;;4936731;28;20461;-86
2022/09/16 01:19:37;;;;;;;5.13;4.77;;;14.50;99.90;;;;;;4967562;28;20513;-85
2022/09/16 01:22:20;;;;;;;5.83;5.43;;;14.70;99.90;;;;;;4968458;29;20457;-86
2022/09/16 01:25:01;;;;;;;6.73;5.90;;;14.70;99.90;;;;;;4967807;29;20450;-85
2022/09/16 01:27:48;;;;;;;6.10;5.60;;;14.60;99.90;;;;;;4967728;29;21034;-85
2022/09/16 01:30:33;;;;;;;6.03;5.53;;;14.50;99.90;;;;;;4968239;29;20488;-85
2022/09/16 01:33:20;;;;;;;5.70;5.20;;;14.50;99.90;;;;;;4958928;28;20461;-86
2022/09/16 01:36:20;;;;;;;5.93;5.27;;;14.40;99.90;;;;;;4968795;29;20799;-85
2022/09/16 01:39:00;;;;;;;6.40;5.90;;;14.40;99.90;;;;;;4968024;29;20508;-86
2022/09/16 01:41:36;;;;;;;6.23;5.60;;;14.50;99.90;;;;;;4968789;29;20465;-86
2022/09/16 01:44:18;;;;;;;7.27;6.57;;;14.50;99.90;;;;;;4968375;29;20449;-86
2022/09/16 01:46:52;;;;;;;8.10;6.20;;;14.40;99.90;;;;;;4969167;29;20440;-85
2022/09/16 01:49:24;;;;;;;7.20;6.60;;;14.30;99.90;;;;;;4949095;29;20941;-86
2022/09/16 01:52:00;;;;;;;6.20;5.70;;;14.30;99.90;;;;;;4960978;29;20441;-85
2022/09/16 01:54:37;;;;;;;6.97;6.33;;;14.30;99.90;;;;;;4968415;29;20490;-86
2022/09/16 01:57:17;;;;;;;7.23;6.43;;;14.20;99.90;;;;;;4968332;29;20947;-85
2022/09/16 01:59:59;;;;;;;6.90;6.23;;;14.20;99.90;;;;;;4967583;29;20479;-85
2022/09/16 02:02:32;;;;;;;5.63;5.20;;;14.20;99.90;;;;;;4949680;29;20449;-86
2022/09/16 02:05:05;;;;;;;7.60;6.90;;;14.10;99.90;;;;;;4958183;29;20463;-85
2022/09/16 02:07:36;;;;;;;7.30;6.10;;;14.10;99.90;;;;;;4968112;29;20548;-86
2022/09/16 02:10:13;;;;;;;6.80;6.30;;;14.00;99.90;;;;;;4968878;29;20505;-86
2022/09/16 02:12:43;;;;;;;5.83;5.30;;;14.00;99.90;;;;;;4969122;28;20464;-86
2022/09/16 02:15:21;;;;;;;5.93;5.20;;;14.10;99.90;;;;;;4968687;29;20536;-86
2022/09/16 02:17:54;;;;;;;5.23;4.90;;;14.10;99.90;;;;;;4982608;28;20482;-86
2022/09/16 02:20:26;;;;;;;5.50;5.10;;;14.10;99.90;;;;;;4992104;28;20468;-84
2022/09/16 02:22:58;;;;;;;5.80;5.30;;;14.10;99.90;;;;;;4994856;28;20444;-84
2022/09/16 02:25:28;;;;;;;5.50;5.10;;;14.20;99.90;;;;;;4985842;28;20486;-85
2022/09/16 02:28:00;;;;;;;5.50;5.00;;;14.20;99.90;;;;;;4975191;28;20834;-84
2022/09/16 02:30:34;;;;;;;4.47;4.10;;;14.30;99.90;;;;;;4975488;28;20465;-83
2022/09/16 02:33:09;;;;;;;4.73;4.33;;;14.30;99.90;;;;;;4970354;29;20517;-85
2022/09/16 02:35:39;;;;;;;3.77;3.07;;;14.20;99.90;;;;;;4968133;29;20503;-85
2022/09/16 02:38:15;;;;;;;6.23;4.53;;;14.10;99.90;;;;;;4967924;29;20517;-85
2022/09/16 02:40:53;;;;;;;4.70;4.40;;;14.20;99.90;;;;;;4968604;29;20449;-86
2022/09/16 02:43:23;;;;;;;3.80;3.50;;;14.10;99.90;;;;;;4967693;28;20532;-86
2022/09/16 02:45:56;;;;;;;4.27;3.97;;;14.10;99.90;;;;;;4968062;29;20445;-85
2022/09/16 02:48:32;;;;;;;4.27;3.87;;;14.10;99.90;;;;;;4967783;28;20524;-86
2022/09/16 02:51:11;;;;;;;4.63;4.30;;;14.00;99.90;;;;;;4967343;29;20480;-85
2022/09/16 02:53:46;;;;;;;4.57;4.17;;;14.10;99.90;;;;;;4967738;29;20467;-85
2022/09/16 02:56:21;;;;;;;5.07;4.50;;;14.20;99.90;;;;;;4967933;29;20955;-86
2022/09/16 02:58:51;;;;;;;4.73;4.40;;;14.20;99.90;;;;;;4967370;29;20468;-85
2022/09/16 03:01:25;;;;;;;6.50;5.17;;;14.10;99.90;;;;;;4967644;28;20563;-84
2022/09/16 03:03:56;;;;;;;5.00;4.50;;;14.10;99.90;;;;;;4967776;29;20452;-84
2022/09/16 03:06:27;;;;;;;5.50;5.10;;;14.10;99.90;;;;;;4968269;29;20457;-85
2022/09/16 03:09:01;;;;;;;4.37;4.07;;;14.10;99.90;;;;;;4967060;28;20476;-85
2022/09/16 03:11:49;;;;;;;4.63;3.60;;;14.10;99.90;;;;;;4967429;28;20949;-85
2022/09/16 03:14:45;;;;;;;3.70;3.40;;;14.30;99.90;;;;;;4967527;29;20491;-85
2022/09/16 03:17:28;;;;;;;4.67;3.50;;;14.40;99.90;;;;;;4950772;28;20444;-84
2022/09/16 03:20:04;;;;;;;4.60;3.87;;;14.40;99.90;;;;;;4948510;29;20469;-85
2022/09/16 03:22:46;;;;;;;4.10;3.80;;;14.40;99.90;;;;;;4950594;29;20504;-86
2022/09/16 03:25:26;;;;;;;6.50;4.03;;;14.30;99.90;;;;;;4967348;29;20460;-85
2022/09/16 03:28:01;;;;;;;4.80;3.60;;;14.30;99.90;;;;;;4967209;29;20468;-85
2022/09/16 03:30:33;;;;;;;4.27;3.97;;;14.40;99.90;;;;;;4968045;28;20488;-85
2022/09/16 03:33:16;;;;;;;4.10;3.70;;;14.50;99.90;;;;;;4967452;29;20462;-85
2022/09/16 03:35:47;;;;;;;3.90;3.60;;;14.50;99.90;;;;;;4967556;29;20454;-85
2022/09/16 03:38:20;;;;;;;4.73;4.07;;;14.50;99.90;;;;;;4967418;28;20537;-85
2022/09/16 03:40:48;;;;;;;6.10;4.10;;;14.60;99.90;;;;;;4982670;23;20568;-82
2022/09/16 03:43:16;;;;;;;4.23;3.77;;;14.60;99.90;;;;;;4958724;29;20448;-82
2022/09/16 03:45:43;;;;;;;5.17;4.00;;;14.50;99.90;;;;;;4957548;29;20860;-82
2022/09/16 03:48:12;;;;;;;4.10;3.70;;;14.40;99.90;;;;;;4957025;29;20455;-81
2022/09/16 03:50:38;;;;;;;3.70;3.37;;;14.40;99.90;;;;;;4944097;28;20489;-82
2022/09/16 03:53:05;;;;;;;3.57;3.27;;;14.50;99.90;;;;;;4941879;29;20461;-82
2022/09/16 03:55:33;;;;;;;4.07;3.27;;;14.50;99.90;;;;;;4956896;29;20455;-82
2022/09/16 03:58:00;;;;;;;4.83;4.43;;;14.40;99.90;;;;;;4957610;29;20830;-82
2022/09/16 04:00:28;;;;;;;5.67;4.00;;;14.40;99.90;;;;;;4958077;28;20839;-82
2022/09/16 04:02:55;;;;;;;4.33;3.93;;;14.30;99.90;;;;;;4956784;29;20452;-81
2022/09/16 04:05:22;;;;;;;4.10;3.80;;;14.20;99.90;;;;;;4957801;29;20457;-82
2022/09/16 04:07:49;;;;;;;4.47;3.70;;;14.20;99.90;;;;;;4946810;29;20454;-82
2022/09/16 04:10:16;;;;;;;5.30;3.50;;;14.20;99.90;;;;;;4938253;29;20522;-81
2022/09/16 04:12:44;;;;;;;5.40;3.20;;;14.20;99.90;;;;;;4938627;29;20453;-82
2022/09/16 04:15:11;;;;;;;7.40;4.27;;;14.10;99.90;;;;;;4938175;29;21094;-81
2022/09/16 04:17:38;;;;;;;3.60;3.30;;;14.20;99.90;;;;;;4945881;29;20460;-81
2022/09/16 04:20:07;;;;;;;6.13;4.97;;;14.20;99.90;;;;;;4957125;28;20473;-82
2022/09/16 04:22:34;;;;;;;5.03;4.30;;;14.10;99.90;;;;;;4956838;29;20453;-82
2022/09/16 04:25:00;;;;;;;4.40;4.00;;;14.20;99.90;;;;;;4957484;29;20457;-82
2022/09/16 04:27:27;;;;;;;3.90;3.57;;;14.30;99.90;;;;;;4941487;28;20461;-82
2022/09/16 04:29:55;;;;;;;4.10;3.80;;;14.30;99.90;;;;;;4937764;29;20882;-82
2022/09/16 04:32:22;;;;;;;4.43;3.97;;;14.30;99.90;;;;;;4938934;29;20483;-82
2022/09/16 04:34:48;;;;;;;3.80;3.50;;;14.40;99.90;;;;;;4946098;29;20868;-82
2022/09/16 04:37:15;;;;;;;5.07;4.53;;;14.50;99.90;;;;;;4957670;28;20448;-82
2022/09/16 04:39:42;;;;;;;3.43;3.13;;;14.50;99.90;;;;;;4950685;28;20485;-82
2022/09/16 04:42:11;;;;;;;4.07;3.77;;;14.50;99.90;;;;;;4938910;29;20474;-82
2022/09/16 04:44:38;;;;;;;4.60;3.83;;;14.60;99.90;;;;;;4939027;29;20454;-82
2022/09/16 04:47:06;;;;;;;4.50;3.53;;;14.60;99.90;;;;;;4939172;29;20454;-82
2022/09/16 04:49:33;;;;;;;4.43;4.03;;;14.60;99.90;;;;;;4939052;29;20471;-82
2022/09/16 04:51:59;;;;;;;4.03;3.63;;;14.60;99.90;;;;;;4939677;29;20489;-82
2022/09/16 04:54:26;;;;;;;4.47;3.50;;;14.60;99.90;;;;;;4952571;29;20819;-82
2022/09/16 04:56:53;;;;;;;3.80;3.30;;;14.70;99.90;;;;;;4958694;29;20449;-82
2022/09/16 04:59:20;;;;;;;4.73;3.47;;;14.70;99.90;;;;;;4957420;28;20472;-82
2022/09/16 05:01:47;;;;;;;4.00;3.07;;;14.70;99.90;;;;;;4957688;29;20489;-82
2022/09/16 05:04:15;;;;;;;4.20;3.80;;;14.80;99.90;;;;;;4958315;29;20454;-82
2022/09/16 05:06:41;;;;;;;4.70;4.33;;;14.80;99.90;;;;;;4957856;28;20465;-82
2022/09/16 05:09:10;;;;;;;3.33;3.03;;;14.80;99.90;;;;;;4941887;29;20480;-82
2022/09/16 05:11:39;;;;;;;3.93;3.63;;;14.80;99.90;;;;;;4949244;29;20511;-81
2022/09/16 05:14:07;;;;;;;4.47;4.03;;;14.90;99.90;;;;;;4949290;29;20461;-81
2022/09/16 05:16:34;;;;;;;4.77;4.13;;;14.80;99.90;;;;;;4957629;29;20476;-81
2022/09/16 05:19:03;;;;;;;4.57;3.97;;;14.80;99.90;;;;;;4957206;29;20473;-82
2022/09/16 05:21:34;;;;;;;3.80;3.53;;;14.80;99.90;;;;;;4962649;29;20460;-83
2022/09/16 05:24:01;;;;;;;4.13;3.73;;;14.70;99.90;;;;;;4961115;29;20449;-83
2022/09/16 05:26:31;;;;;;;4.73;4.33;;;14.70;99.90;;;;;;4943610;29;20464;-83
2022/09/16 05:29:01;;;;;;;5.20;4.40;;;14.60;99.90;;;;;;4945132;29;20465;-82
2022/09/16 05:31:30;;;;;;;6.00;4.17;;;14.50;99.90;;;;;;4971003;29;20464;-83
2022/09/16 05:33:58;;;;;;;5.07;3.90;;;14.40;99.90;;;;;;4965694;29;20445;-83
2022/09/16 05:36:26;;;;;;;4.93;4.50;;;14.30;99.90;;;;;;4943363;29;20449;-83
2022/09/16 05:38:55;;;;;;;8.30;5.43;;;14.30;99.90;;;;;;4941864;29;20453;-83
2022/09/16 05:41:22;;;;;;;5.83;5.30;;;14.30;99.90;;;;;;4942529;29;20481;-83
2022/09/16 05:43:49;;;;;;;5.37;4.87;;;14.30;99.90;;;;;;4950362;29;20475;-83
2022/09/16 05:46:18;;;;;;;5.03;4.63;;;14.30;99.90;;;;;;4960991;29;20479;-83
2022/09/16 05:48:45;;;;;;;4.30;4.00;;;14.30;99.90;;;;;;4960200;29;20452;-83
2022/09/16 05:51:15;;;;;;;9.07;4.77;;;14.20;99.90;;;;;;4960731;28;20802;-82
2022/09/16 05:53:42;;;;;;;4.77;4.40;;;14.10;99.90;;;;;;4959669;29;20460;-83
2022/09/16 05:56:12;;;;;;;6.10;5.57;;;14.20;99.90;;;;;;4960382;28;20460;-82
2022/09/16 05:58:40;;;;;;;5.67;4.20;;;14.10;99.90;;;;;;4943348;29;20462;-82
2022/09/16 06:01:08;;;;;;;5.47;4.90;;;14.10;99.90;;;;;;4940547;29;20707;-82
2022/09/16 06:03:37;;;;;;;5.43;4.37;;;14.00;99.90;;;;;;4956152;29;20530;-82
2022/09/16 06:06:06;;;;;;;6.40;5.00;;;13.90;99.90;;;;;;4959809;29;20464;-83
2022/09/16 06:08:35;;;;;;;5.10;4.60;;;13.90;99.90;;;;;;4946357;29;20836;-82
2022/09/16 06:11:03;;;;;;;6.13;5.53;;;13.90;99.90;;;;;;4958345;28;21087;-82
2022/09/16 06:13:31;;;;;;;8.03;4.80;;;13.90;99.90;;;;;;4944113;29;20986;-82
2022/09/16 06:15:58;;;;;;;5.40;4.90;;;13.90;99.90;;;;;;4938366;29;20452;-82
2022/09/16 06:18:27;;;;;;;6.53;4.77;;;13.90;99.90;;;;;;4949693;28;20477;-82
2022/09/16 06:20:54;;;;;;;5.43;4.97;;;13.90;99.90;;;;;;4954479;28;20982;-82
2022/09/16 06:23:22;;;;;;;4.67;4.17;;;13.90;99.90;;;;;;4951861;29;20460;-81
2022/09/16 06:25:49;;;;;;;5.17;4.83;;;14.00;99.90;;;;;;4955749;28;20460;-82
2022/09/16 06:28:16;;;;;;;5.90;5.40;;;13.90;99.90;;;;;;4937939;29;20457;-81
2022/09/16 06:30:44;;;;;;;5.90;5.20;;;13.80;99.90;;;;;;4938568;29;20493;-82
2022/09/16 06:33:16;;;;;;;10.20;4.67;;;13.90;99.90;;;;;;4940856;29;20898;-82
2022/09/16 06:35:43;;;;;;;5.03;4.63;;;13.90;99.90;;;;;;4921438;29;20469;-82
2022/09/16 06:38:09;;;;;;;6.20;5.60;;;14.00;99.90;;;;;;4956763;29;20472;-83
2022/09/16 06:40:36;;;;;;;4.33;4.00;;;13.90;99.90;;;;;;4947284;29;20472;-82
2022/09/16 06:43:03;;;;;;;5.70;5.10;;;13.90;99.90;;;;;;4948972;29;20456;-82
2022/09/16 06:45:29;;;;;;;5.60;5.03;;;13.90;99.90;;;;;;4947108;29;20450;-82
2022/09/16 06:48:00;;;;;;;6.03;5.40;;;13.90;99.90;;;;;;4944189;29;20486;-82
2022/09/16 06:50:27;;;;;;;8.30;5.20;;;14.00;99.90;;;;;;4947569;28;20500;-81
2022/09/16 06:52:54;;;;;;;9.20;6.30;;;13.90;99.90;;;;;;4945122;29;20465;-81
2022/09/16 06:55:20;;;;;;;6.60;6.00;;;13.80;99.90;;;;;;4946941;29;20450;-82
2022/09/16 06:57:47;;;;;;;6.03;5.30;;;13.80;99.90;;;;;;4942938;29;20527;-81
2022/09/16 07:00:14;;;;;;;6.03;5.43;;;13.90;99.90;;;;;;4944838;29;20472;-81
2022/09/16 07:02:41;;;;;;;5.63;4.83;;;13.80;99.90;;;;;;4945514;29;20446;-81
2022/09/16 07:05:10;;;;;;;6.63;6.07;;;13.70;99.90;;;;;;4946009;29;20453;-81
2022/09/16 07:07:38;;;;;;;7.27;6.60;;;13.70;99.90;;;;;;4952199;28;20457;-81
2022/09/16 07:10:05;;;;;;;8.13;6.37;;;13.60;99.90;;;;;;4954493;28;20472;-82
2022/09/16 07:12:32;;;;;;;5.87;5.10;;;13.50;99.90;;;;;;4955066;29;20494;-80
2022/09/16 07:14:59;;;;;;;8.27;6.17;;;13.40;99.90;;;;;;4955142;29;20448;-81
2022/09/16 07:17:28;;;;;;;6.10;5.50;;;13.40;99.90;;;;;;4955143;28;20455;-86
2022/09/16 07:19:55;;;;;;;6.13;5.60;;;13.50;99.90;;;;;;4951708;28;20561;-82
2022/09/16 07:22:24;;;;;;;5.80;5.37;;;13.40;99.90;;;;;;4938991;29;20484;-84
2022/09/16 07:24:50;;;;;;;6.10;5.50;;;13.50;99.90;;;;;;4944329;29;20831;-84
2022/09/16 07:27:17;;;;;;;8.00;6.83;;;13.40;99.90;;;;;;4958839;28;20545;-85
2022/09/16 07:29:44;;;;;;;6.80;6.10;;;13.30;99.90;;;;;;4957771;28;20469;-83
2022/09/16 07:32:10;;;;;;;7.17;6.47;;;13.40;99.90;;;;;;4939424;29;20450;-86
2022/09/16 07:34:37;;;;;;;6.93;5.77;;;13.40;99.90;;;;;;4955138;29;20460;-85
2022/09/16 07:37:04;;;;;;;11.63;6.30;;;13.50;99.90;;;;;;4956379;29;20460;-85
2022/09/16 07:39:32;;;;;;;6.83;6.30;;;13.50;99.90;;;;;;4955804;28;20495;-84
2022/09/16 07:42:00;;;;;;;7.43;6.70;;;13.70;99.90;;;;;;4955946;29;20492;-84
2022/09/16 07:44:27;;;;;;;9.00;7.10;;;13.60;99.90;;;;;;4955843;28;20471;-84
2022/09/16 07:46:54;;;;;;;8.73;7.83;;;13.70;99.90;;;;;;4955401;29;20498;-84
2022/09/16 07:49:21;;;;;;;7.50;6.70;;;13.70;99.90;;;;;;4955400;28;20473;-83
2022/09/16 07:51:48;;;;;;;7.03;6.43;;;13.70;99.90;;;;;;4955078;28;20954;-85
2022/09/16 07:54:17;;;;;;;9.80;7.20;;;13.60;99.90;;;;;;4955355;29;20858;-85
2022/09/16 07:56:45;;;;;;;10.63;9.40;;;13.60;99.90;;;;;;4955477;29;20451;-83
2022/09/16 07:59:14;;;;;;;8.37;7.60;;;13.60;99.90;;;;;;4955202;28;20483;-83
2022/09/16 08:01:41;;;;;;;7.93;7.23;;;13.60;99.90;;;;;;4954783;29;21017;-82
2022/09/16 08:04:07;;;;;;;7.67;6.87;;;13.60;99.90;;;;;;4954783;29;20448;-83
2022/09/16 08:06:38;;;;;;;8.43;7.60;;;13.50;99.90;;;;;;4955163;29;20452;-85
2022/09/16 08:09:05;;;;;;;8.47;7.30;;;13.40;99.90;;;;;;4955795;28;20441;-85
2022/09/16 08:11:32;;;;;;;10.77;8.17;;;13.40;99.90;;;;;;4956104;29;20456;-85
2022/09/16 08:14:00;;;;;;;9.50;7.83;;;13.50;99.90;;;;;;4956383;29;20472;-86
2022/09/16 08:16:27;;;;;;;8.67;7.63;;;13.60;99.90;;;;;;4955839;29;20496;-85
2022/09/16 08:18:56;;;;;;;8.50;7.53;;;13.70;99.90;;;;;;4956227;28;20459;-82
2022/09/16 08:21:25;;;;;;;9.00;8.10;;;13.80;99.90;;;;;;4967118;29;20508;-85
2022/09/16 08:23:52;;;;;;;9.80;9.13;;;13.90;99.90;;;;;;4955843;29;20453;-85
2022/09/16 08:26:20;;;;;;;8.87;8.07;;;13.80;99.90;;;;;;4955784;29;20448;-86
2022/09/16 08:28:48;;;;;;;7.57;6.80;;;13.90;99.90;;;;;;4955333;29;20449;-85
2022/09/16 08:31:17;;;;;;;8.73;7.90;;;14.10;99.90;;;;;;4955169;29;20457;-86
2022/09/16 08:33:44;;;;;;;7.60;6.67;;;14.10;99.90;;;;;;4955681;29;20449;-86
2022/09/16 08:36:14;;;;;;;10.23;7.40;;;14.20;99.90;;;;;;4955229;29;20486;-85
2022/09/16 08:38:42;;;;;;;7.43;6.77;;;14.20;99.90;;;;;;4955455;29;20452;-86
2022/09/16 08:41:26;;;;;;;7.30;6.53;;;14.20;99.90;;;;;;4955696;28;20484;-86
2022/09/16 08:44:01;;;;;;;7.33;6.73;;;14.20;99.90;;;;;;4959399;29;20444;-86
2022/09/16 08:46:34;;;;;;;6.90;6.30;;;14.20;99.90;;;;;;4959158;29;20456;-86
2022/09/16 08:49:08;;;;;;;6.30;5.80;;;14.30;99.90;;;;;;4958904;28;20938;-86
2022/09/16 08:51:35;;;;;;;7.97;6.80;;;14.30;99.90;;;;;;4959675;29;20443;-87
2022/09/16 08:54:06;;;;;;;11.40;10.13;;;14.40;99.90;;;;;;4959262;29;20453;-86
2022/09/16 08:56:35;;;;;;;7.30;6.70;;;14.40;99.90;;;;;;4958891;29;20429;-85
2022/09/16 08:59:09;;;;;;;8.53;7.73;;;14.40;99.90;;;;;;4959033;28;20459;-86
2022/09/16 09:01:44;;;;;;;6.73;6.20;;;14.50;99.90;;;;;;4959617;29;20483;-86
2022/09/16 09:04:12;;;;;;;6.60;6.00;;;14.40;99.90;;;;;;4959463;29;20440;-86
2022/09/16 09:06:54;;;;;;;6.03;5.63;;;14.30;99.90;;;;;;4959892;29;20460;-85
2022/09/16 09:09:35;;;;;;;7.90;7.30;;;14.30;99.90;;;;;;4958746;28;20839;-86
2022/09/16 09:12:07;;;;;;;10.63;6.90;;;14.20;99.90;;;;;;4959786;29;20446;-85
2022/09/16 09:15:01;;;;;;;7.57;7.07;;;14.10;99.90;;;;;;4966236;29;20448;-85
2022/09/16 09:17:43;;;;;;;5.60;5.10;;;14.10;99.90;;;;;;4940138;29;20915;-86
2022/09/16 09:20:22;;;;;;;5.93;5.43;;;14.10;99.90;;;;;;4939912;29;20507;-84
2022/09/16 09:23:05;;;;;;;6.40;5.80;;;14.10;99.90;;;;;;4940031;29;20480;-84
2022/09/16 09:25:39;;;;;;;5.80;5.30;;;14.10;99.90;;;;;;4942271;29;20437;-82
2022/09/16 09:28:20;;;;;;;5.40;4.90;;;14.10;99.90;;;;;;4944640;29;20453;-83
2022/09/16 09:30:55;;;;;;;4.97;4.47;;;14.10;99.90;;;;;;4951867;29;20567;-81
2022/09/16 09:33:34;;;;;;;9.57;6.40;;;14.10;99.90;;;;;;4960975;29;20516;-85
2022/09/16 09:36:26;;;;;;;5.23;4.83;;;14.10;99.90;;;;;;4951287;29;20461;-83
2022/09/16 09:39:15;;;;;;;7.07;6.47;;;14.30;99.90;;;;;;4955275;28;20461;-85
2022/09/16 09:41:48;;;;;;;7.80;6.33;;;14.40;99.90;;;;;;4923618;29;20474;-85
2022/09/16 09:44:31;;;;;;;6.30;5.80;;;14.40;99.90;;;;;;4941214;29;20473;-84
2022/09/16 09:47:02;;;;;;;6.47;5.70;;;14.60;99.90;;;;;;4947426;29;20477;-82
2022/09/16 09:49:33;;;;;;;5.87;5.30;;;14.70;99.90;;;;;;4943676;29;20915;-83
2022/09/16 09:52:08;;;;;;;5.10;4.70;;;14.80;99.90;;;;;;4942745;29;20466;-84
2022/09/16 09:54:36;;;;;;;5.47;4.93;;;14.90;99.90;;;;;;4942334;29;20521;-83
2022/09/16 09:57:07;;;;;;;6.90;6.23;;;14.80;99.90;;;;;;4943114;29;20470;-84
2022/09/16 09:59:40;;;;;;;5.10;4.57;;;14.80;99.90;;;;;;4946174;29;20473;-83
2022/09/16 10:02:14;;;;;;;5.40;4.50;;;14.90;99.90;;;;;;4943191;29;20494;-83
2022/09/16 10:04:42;;;;;;;5.70;5.20;;;14.70;99.90;;;;;;4953679;29;20441;-85
2022/09/16 10:07:11;;;;;;;6.00;5.47;;;14.80;99.90;;;;;;4958360;29;20974;-85
2022/09/16 10:19:54;;;;;;;5.13;4.80;;;14.90;99.90;;;;;;5020316;23;20512;-83
2022/09/16 10:22:29;;;;;;;8.20;4.40;;;14.80;99.90;;;;;;4984677;28;20490;-84
2022/09/16 10:24:57;;;;;;;5.60;5.20;;;14.80;99.90;;;;;;4978601;28;20526;-85
2022/09/16 10:27:28;;;;;;;7.83;5.20;;;14.80;99.90;;;;;;4979061;28;20472;-86
2022/09/16 10:30:13;;;;;;;5.50;5.10;;;14.80;99.90;;;;;;4960765;28;20564;-84
2022/09/16 10:32:56;;;;;;;5.03;4.33;;;15.00;99.90;;;;;;4958484;28;20461;-85
2022/09/16 10:35:26;;;;;;;6.33;4.40;;;15.00;99.90;;;;;;4960522;28;20464;-84
2022/09/16 10:38:29;;;;;;;4.83;3.70;;;14.80;99.90;;;;;;4957145;28;20460;-86
2022/09/16 10:41:33;;;;;;;3.80;3.60;;;14.80;99.90;;;;;;4956174;28;20463;-86
2022/09/16 10:44:27;;;;;;;4.30;4.00;;;14.90;99.90;;;;;;4956589;28;20500;-85
2022/09/16 10:46:59;;;;;;;4.93;4.53;;;15.00;99.90;;;;;;4960769;28;20460;-84
2022/09/16 10:52:47;;;;;;;4.37;3.97;;;15.00;99.90;;;;;;4921552;28;20488;-84
2022/09/16 11:06:24;;;;;;;4.30;3.90;;;14.70;99.90;;;;;;4874046;29;20445;-87
2022/09/16 11:09:18;;;;;;;4.50;4.10;;;14.60;99.90;;;;;;4881115;29;20478;-86
2022/09/16 11:12:38;;;;;;;4.17;3.60;;;14.60;99.90;;;;;;4954127;28;20547;-86
2022/09/16 11:15:43;;;;;;;3.70;3.43;;;14.60;99.90;;;;;;4894322;29;20547;-86
2022/09/16 11:23:41;;;;;;;4.90;4.50;;;14.60;99.90;;;;;;3302869;26;20577;-83
2022/09/16 11:26:14;;;;;;;4.40;4.10;;;14.60;99.90;;;;;;4940796;29;20456;-81
2022/09/16 11:28:54;;;;;;;5.10;4.17;;;14.50;99.90;;;;;;4945056;29;20477;-82
2022/09/16 11:31:33;;;;;;;15.37;5.80;;;14.40;99.90;;;;;;4946436;29;20449;-85
2022/09/16 11:34:06;;;;;;;25.90;6.80;;;14.50;99.90;;;;;;4944515;29;20461;-85
2022/09/16 11:36:45;;;;;;;4.00;3.57;;;14.40;99.90;;;;;;4945603;29;20460;-85
2022/09/16 11:39:26;;;;;;;5.47;4.97;;;14.40;99.90;;;;;;4944173;29;20484;-85
2022/09/16 11:42:01;;;;;;;3.80;3.57;;;14.30;99.90;;;;;;4955934;29;20866;-84
2022/09/16 11:44:42;;;;;;;4.87;4.50;;;14.40;99.90;;;;;;4950383;29;20457;-86
2022/09/16 12:04:46;;;;;;;2.33;2.23;;;15.30;99.90;;;;;;4919562;29;20493;-86
2022/09/16 12:07:45;;;;;;;2.23;2.03;;;15.40;99.90;;;;;;4875808;29;20468;-87
2022/09/16 12:10:18;;;;;;;3.03;2.00;;;15.50;99.90;;;;;;4914916;29;21017;-86
2022/09/16 12:12:49;;;;;;;2.10;2.00;;;15.60;99.90;;;;;;4938693;29;21021;-88
2022/09/16 12:15:20;;;;;;;5.57;2.50;;;15.70;99.90;;;;;;4951615;28;20514;-88
2022/09/16 12:17:55;;;;;;;3.37;1.87;;;15.80;99.90;;;;;;4957272;29;20477;-85
2022/09/16 12:20:27;;;;;;;1.97;1.70;;;15.70;99.90;;;;;;4957609;28;20993;-87
2022/09/16 12:23:04;;;;;;;3.13;2.00;;;15.60;99.90;;;;;;4957491;28;20845;-86
2022/09/16 12:25:38;;;;;;;1.67;1.57;;;15.50;99.90;;;;;;4957582;29;20466;-87
2022/09/16 12:28:15;;;;;;;2.20;2.00;;;15.50;99.90;;;;;;4962802;28;20478;-85
2022/09/16 12:30:45;;;;;;;3.40;1.90;;;15.50;99.90;;;;;;4927794;29;20465;-85
2022/09/16 12:33:18;;;;;;;2.50;2.30;;;15.60;99.90;;;;;;4943543;29;20497;-84
2022/09/16 12:35:52;;;;;;;3.13;1.83;;;15.60;99.90;;;;;;4945015;29;20513;-85
2022/09/16 12:38:21;;;;;;;2.40;2.30;;;15.60;99.90;;;;;;4946252;29;20460;-86
2022/09/16 12:41:11;;;;;;;3.83;2.97;;;15.70;99.90;;;;;;4945091;29;20461;-86
2022/09/16 12:47:41;;;;;;;4.07;2.00;;;15.30;99.90;;;;;;4937049;29;20445;-86
2022/09/16 12:50:40;;;;;;;2.87;2.67;;;15.00;99.90;;;;;;4938178;29;20506;-86
2022/09/16 12:53:36;;;;;;;2.87;2.60;;;14.90;99.90;;;;;;4921292;29;20493;-86
2022/09/16 12:56:12;;;;;;;3.93;2.50;;;15.00;99.90;;;;;;4938634;29;20453;-86
2022/09/16 13:13:59;;;;;;;2.73;2.43;;;15.30;99.90;;;;;;4966584;28;20494;-84
2022/09/16 13:16:33;;;;;;;2.80;2.53;;;15.50;99.90;;;;;;4975778;28;20460;-85
2022/09/16 13:19:33;;;;;;;3.27;2.97;;;15.80;99.90;;;;;;4979290;28;20475;-85
2022/09/16 13:22:10;;;;;;;3.27;2.43;;;16.20;99.90;;;;;;4946724;28;20480;-84
2022/09/16 13:28:05;;;;;;;2.33;2.23;;;17.10;99.90;;;;;;4979863;28;20448;-84
2022/09/16 13:48:10;;;;;;;2.37;2.17;;;21.50;91.50;;;;;;4975433;28;20427;-87
2022/09/16 13:54:49;;;;;;;2.10;1.90;;;21.20;87.40;;;;;;4947964;28;20492;-88
2022/09/16 13:57:27;;;;;;;4.83;1.93;;;20.60;90.00;;;;;;4955903;28;20465;-86
2022/09/16 14:00:15;;;;;;;6.80;2.40;;;20.30;91.10;;;;;;4955823;29;20480;-87
2022/09/16 14:15:06;;;;;;;3.93;1.60;;;19.50;90.90;;;;;;4942917;29;20480;-86
2022/09/16 14:17:39;;;;;;;1.83;1.73;;;19.80;90.70;;;;;;4927673;29;20521;-83
2022/09/16 14:20:15;;;;;;;1.80;1.70;;;20.20;90.70;;;;;;4936710;29;20819;-84
2022/09/16 14:22:44;;;;;;;2.20;1.80;;;20.70;89.10;;;;;;4946245;29;20525;-84
2022/09/16 14:25:25;;;;;;;1.50;1.47;;;21.00;88.30;;;;;;4946218;29;20465;-84
2022/09/16 14:27:53;;;;;;;1.83;1.73;;;21.30;88.10;;;;;;4946530;29;20462;-84
2022/09/16 14:30:21;;;;;;;1.90;1.80;;;21.50;88.10;;;;;;4946374;29;20497;-84
2022/09/16 14:32:50;;;;;;;4.03;2.20;;;21.40;85.50;;;;;;4945993;29;20493;-83
2022/09/16 14:35:20;;;;;;;1.90;1.80;;;20.40;83.40;;;;;;4929080;29;20458;-84
2022/09/16 14:37:51;;;;;;;1.73;1.63;;;19.60;85.80;;;;;;4944864;29;20456;-84
2022/09/16 14:40:21;;;;;;;3.60;2.60;;;19.10;87.80;;;;;;4944088;29;20852;-83
2022/09/16 14:49:29;;;;;;;1.57;1.47;;;19.80;89.00;;;;;;4932122;29;20828;-85
2022/09/16 14:51:58;;;;;;;2.03;1.60;;;19.50;88.40;;;;;;4936397;29;20457;-84
2022/09/16 14:54:27;;;;;;;1.93;1.80;;;19.60;90.00;;;;;;4936520;29;20488;-86
2022/09/16 14:56:55;;;;;;;2.10;1.83;;;19.80;90.50;;;;;;4934769;29;20450;-85
2022/09/16 14:59:27;;;;;;;1.80;1.70;;;20.00;90.20;;;;;;4937612;29;20990;-84
2022/09/16 15:02:01;;;;;;;6.90;2.20;;;20.00;87.60;;;;;;4940883;29;20477;-85
2022/09/16 15:05:12;;;;;;;1.67;1.57;;;20.10;87.90;;;;;;4938903;29;20457;-86
2022/09/16 15:08:01;;;;;;;2.67;1.93;;;20.00;86.70;;;;;;4935613;29;20538;-86
2022/09/16 15:10:52;;;;;;;1.97;1.87;;;19.80;87.40;;;;;;4936792;29;20485;-86
2022/09/16 15:13:22;;;;;;;3.40;1.97;;;19.70;88.70;;;;;;4937756;29;20495;-84
2022/09/16 15:15:54;;;;;;;2.20;2.00;;;19.50;89.50;;;;;;4937854;29;20829;-84
2022/09/16 15:18:31;;;;;;;2.23;1.97;;;19.40;90.50;;;;;;4937610;29;20955;-86
2022/09/16 15:21:05;;;;;;;1.77;1.67;;;19.20;91.20;;;;;;4937461;29;20468;-85
2022/09/16 15:23:34;;;;;;;1.97;1.77;;;19.00;90.40;;;;;;4936622;29;20554;-85
2022/09/16 15:26:15;;;;;;;2.20;2.00;;;18.80;90.20;;;;;;4937131;29;20971;-85